PWSweather.com
Personal Weather Stations
Station Observations

ChardChardGB

Lat: 50.877408, Lon: -2.94964741

Elevation: 341

Station Type: WS3083

http://www.merriott-astro.co.uk/weather/index.htm

High Low Average
Temperature 58.5°F14.7°C 49.5°F9.7°C 52.7°F11.5°C
Dew Point 50.4°F10.2°C 45.0°F7.2°C 46.9°F8.3°C
Winds 13.0 mph 20.9 kmh 1.9 mph 3.1 kmh 5.0 mph SW8.0 kmh SW
Wind Gusts 21.3 mph34.3 kmh 3.1 mph5.0 kmh 8.0 mph12.9 kmh
Humidity 91% 66% 81%
Pressure 29.71 in1006.1 mb 29.58 in1001.7 mb -
Precipitation 0.20 in5.1 mm - -
Hour Temp Dew Point Humidity Winds Wind Gusts Pressure Precip Precip Rate Daily Precip Total
12:00 AM 51.8°F11.0°C 45.8°F7.7°C 80% 5.7 mph SW9.2 kmh SW 7.6 mph12.2 kmh 29.63 in1003.4 mb 0.00 in0.0 mm 0.00 in0.0 mm 0.00 in0.0 mm
12:10 AM 51.8°F11.0°C 45.8°F7.7°C 80% 5.7 mph SW9.2 kmh SW 7.6 mph12.2 kmh 29.62 in1003.0 mb 0.00 in0.0 mm 0.00 in0.0 mm 0.00 in0.0 mm
12:20 AM 52.0°F11.1°C 46.0°F7.8°C 80% 5.4 mph SW8.7 kmh SW 8.3 mph13.4 kmh 29.62 in1003.0 mb 0.00 in0.0 mm 0.00 in0.0 mm 0.00 in0.0 mm
12:30 AM 52.2°F11.2°C 46.2°F7.9°C 80% 4.3 mph SSE6.9 kmh SSE 7.6 mph12.2 kmh 29.63 in1003.4 mb 0.00 in0.0 mm 0.00 in0.0 mm 0.00 in0.0 mm
12:40 AM 52.2°F11.2°C 46.2°F7.9°C 80% 4.6 mph WSW7.4 kmh WSW 5.4 mph8.7 kmh 29.63 in1003.4 mb 0.00 in0.0 mm 0.00 in0.0 mm 0.00 in0.0 mm
12:50 AM 52.2°F11.2°C 46.2°F7.9°C 80% 5.1 mph SW8.2 kmh SW 8.3 mph13.4 kmh 29.63 in1003.4 mb 0.00 in0.0 mm 0.00 in0.0 mm 0.00 in0.0 mm
01:00 AM 52.2°F11.2°C 46.5°F8.1°C 81% 4.5 mph S7.2 kmh S 6.0 mph9.7 kmh 29.62 in1003.0 mb 0.00 in0.0 mm 0.00 in0.0 mm 0.00 in0.0 mm
01:10 AM 52.2°F11.2°C 46.5°F8.1°C 81% 4.5 mph SSW7.2 kmh SSW 6.0 mph9.7 kmh 29.62 in1003.0 mb 0.00 in0.0 mm 0.00 in0.0 mm 0.00 in0.0 mm
01:20 AM 52.2°F11.2°C 46.5°F8.1°C 81% 5.7 mph SSW9.2 kmh SSW 8.3 mph13.4 kmh 29.62 in1003.0 mb 0.00 in0.0 mm 0.00 in0.0 mm 0.00 in0.0 mm
01:30 AM 52.2°F11.2°C 46.5°F8.1°C 81% 4.7 mph S7.6 kmh S 6.0 mph9.7 kmh 29.62 in1003.0 mb 0.00 in0.0 mm 0.00 in0.0 mm 0.00 in0.0 mm
01:40 AM 52.2°F11.2°C 46.5°F8.1°C 81% 3.5 mph SSW5.6 kmh SSW 6.9 mph11.1 kmh 29.62 in1003.0 mb 0.00 in0.0 mm 0.00 in0.0 mm 0.00 in0.0 mm
01:50 AM 52.2°F11.2°C 46.5°F8.1°C 81% 4.9 mph SW7.9 kmh SW 8.3 mph13.4 kmh 29.61 in1002.7 mb 0.00 in0.0 mm 0.00 in0.0 mm 0.00 in0.0 mm
02:00 AM 52.2°F11.2°C 46.5°F8.1°C 81% 5.4 mph SSW8.7 kmh SSW 8.3 mph13.4 kmh 29.62 in1003.0 mb 0.00 in0.0 mm 0.00 in0.0 mm 0.00 in0.0 mm
02:10 AM 52.0°F11.1°C 46.3°F7.9°C 81% 4.0 mph S6.4 kmh S 6.9 mph11.1 kmh 29.61 in1002.7 mb 0.00 in0.0 mm 0.00 in0.0 mm 0.00 in0.0 mm
02:20 AM 52.0°F11.1°C 46.3°F7.9°C 81% 4.7 mph SW7.6 kmh SW 6.9 mph11.1 kmh 29.61 in1002.7 mb 0.00 in0.0 mm 0.00 in0.0 mm 0.00 in0.0 mm
02:30 AM 51.8°F11.0°C 46.2°F7.9°C 81% 5.3 mph SSW8.5 kmh SSW 6.9 mph11.1 kmh 29.61 in1002.7 mb 0.00 in0.0 mm 0.00 in0.0 mm 0.00 in0.0 mm
02:40 AM 51.8°F11.0°C 45.8°F7.7°C 80% 3.3 mph SW5.3 kmh SW 6.0 mph9.7 kmh 29.61 in1002.7 mb 0.00 in0.0 mm 0.00 in0.0 mm 0.00 in0.0 mm
02:50 AM 51.8°F11.0°C 45.8°F7.7°C 80% 4.5 mph SSW7.2 kmh SSW 6.0 mph9.7 kmh 29.61 in1002.7 mb 0.00 in0.0 mm 0.00 in0.0 mm 0.00 in0.0 mm
03:00 AM 52.0°F11.1°C 46.0°F7.8°C 80% 6.0 mph SSE9.7 kmh SSE 9.2 mph14.8 kmh 29.60 in1002.4 mb 0.00 in0.0 mm 0.00 in0.0 mm 0.00 in0.0 mm
03:10 AM 51.8°F11.0°C 46.2°F7.9°C 81% 4.7 mph SW7.6 kmh SW 6.9 mph11.1 kmh 29.60 in1002.4 mb 0.00 in0.0 mm 0.00 in0.0 mm 0.00 in0.0 mm
03:20 AM 51.8°F11.0°C 46.5°F8.1°C 82% 5.2 mph SW8.4 kmh SW 6.0 mph9.7 kmh 29.60 in1002.4 mb 0.00 in0.0 mm 0.00 in0.0 mm 0.00 in0.0 mm
03:30 AM 51.4°F10.8°C 46.5°F8.1°C 83% 4.8 mph S7.7 kmh S 6.9 mph11.1 kmh 29.60 in1002.4 mb 0.00 in0.0 mm 0.00 in0.0 mm 0.00 in0.0 mm
03:40 AM 51.1°F10.6°C 46.4°F8.0°C 84% 4.9 mph W7.9 kmh W 6.9 mph11.1 kmh 29.59 in1002.0 mb 0.00 in0.0 mm 0.00 in0.0 mm 0.00 in0.0 mm
03:50 AM 50.9°F10.5°C 46.6°F8.1°C 85% 4.2 mph NW6.8 kmh NW 6.9 mph11.1 kmh 29.59 in1002.0 mb 0.00 in0.0 mm 0.00 in0.0 mm 0.00 in0.0 mm
04:00 AM 50.7°F10.4°C 46.4°F8.0°C 85% 4.2 mph SW6.8 kmh SW 6.0 mph9.7 kmh 29.59 in1002.0 mb 0.00 in0.0 mm 0.00 in0.0 mm 0.00 in0.0 mm
04:10 AM 50.4°F10.2°C 46.0°F7.8°C 85% 4.5 mph S7.2 kmh S 6.9 mph11.1 kmh 29.59 in1002.0 mb 0.00 in0.0 mm 0.00 in0.0 mm 0.00 in0.0 mm
04:20 AM 50.4°F10.2°C 46.0°F7.8°C 85% 3.7 mph SW6.0 kmh SW 5.4 mph8.7 kmh 29.59 in1002.0 mb 0.00 in0.0 mm 0.00 in0.0 mm 0.00 in0.0 mm
04:30 AM 50.0°F10.0°C 45.4°F7.4°C 84% 3.3 mph SW5.3 kmh SW 6.0 mph9.7 kmh 29.59 in1002.0 mb 0.00 in0.0 mm 0.00 in0.0 mm 0.00 in0.0 mm
04:40 AM 49.8°F9.9°C 45.5°F7.5°C 85% 2.2 mph SW3.5 kmh SW 3.1 mph5.0 kmh 29.59 in1002.0 mb 0.00 in0.0 mm 0.00 in0.0 mm 0.00 in0.0 mm
04:50 AM 49.6°F9.8°C 45.3°F7.4°C 85% 2.2 mph SSW3.5 kmh SSW 3.1 mph5.0 kmh 29.59 in1002.0 mb 0.00 in0.0 mm 0.00 in0.0 mm 0.00 in0.0 mm
05:00 AM 49.6°F9.8°C 45.3°F7.4°C 85% 3.1 mph S5.0 kmh S 5.4 mph8.7 kmh 29.59 in1002.0 mb 0.00 in0.0 mm 0.00 in0.0 mm 0.00 in0.0 mm
05:10 AM 49.8°F9.9°C 45.2°F7.3°C 84% 3.9 mph S6.3 kmh S 5.4 mph8.7 kmh 29.58 in1001.7 mb 0.00 in0.0 mm 0.00 in0.0 mm 0.00 in0.0 mm
05:20 AM 50.0°F10.0°C 45.4°F7.4°C 84% 4.5 mph SSW7.2 kmh SSW 6.9 mph11.1 kmh 29.59 in1002.0 mb 0.00 in0.0 mm 0.00 in0.0 mm 0.00 in0.0 mm
05:30 AM 50.0°F10.0°C 45.0°F7.2°C 83% 4.0 mph S6.4 kmh S 7.6 mph12.2 kmh 29.59 in1002.0 mb 0.00 in0.0 mm 0.00 in0.0 mm 0.00 in0.0 mm
05:40 AM 50.2°F10.1°C 45.2°F7.3°C 83% 5.2 mph SW8.4 kmh SW 9.2 mph14.8 kmh 29.59 in1002.0 mb 0.00 in0.0 mm 0.00 in0.0 mm 0.00 in0.0 mm
05:50 AM 50.0°F10.0°C 45.4°F7.4°C 84% 4.1 mph SW6.6 kmh SW 6.9 mph11.1 kmh 29.58 in1001.7 mb 0.00 in0.0 mm 0.00 in0.0 mm 0.00 in0.0 mm
06:00 AM 49.8°F9.9°C 45.5°F7.5°C 85% 4.9 mph SW7.9 kmh SW 6.0 mph9.7 kmh 29.59 in1002.0 mb 0.00 in0.0 mm 0.00 in0.0 mm 0.00 in0.0 mm
06:10 AM 49.8°F9.9°C 45.8°F7.7°C 86% 4.5 mph SW7.2 kmh SW 6.9 mph11.1 kmh 29.58 in1001.7 mb 0.00 in0.0 mm 0.00 in0.0 mm 0.00 in0.0 mm
06:20 AM 49.8°F9.9°C 46.1°F7.8°C 87% 4.5 mph S7.2 kmh S 6.9 mph11.1 kmh 29.58 in1001.7 mb 0.00 in0.0 mm 0.00 in0.0 mm 0.00 in0.0 mm
06:30 AM 49.8°F9.9°C 46.1°F7.8°C 87% 3.9 mph S6.3 kmh S 8.3 mph13.4 kmh 29.58 in1001.7 mb 0.00 in0.0 mm 0.00 in0.0 mm 0.00 in0.0 mm
06:40 AM 49.6°F9.8°C 45.9°F7.7°C 87% 3.9 mph SW6.3 kmh SW 6.0 mph9.7 kmh 29.58 in1001.7 mb 0.00 in0.0 mm 0.00 in0.0 mm 0.00 in0.0 mm
06:50 AM 49.5°F9.7°C 45.8°F7.7°C 87% 3.5 mph SSW5.6 kmh SSW 4.5 mph7.2 kmh 29.58 in1001.7 mb 0.00 in0.0 mm 0.00 in0.0 mm 0.00 in0.0 mm
07:00 AM 49.6°F9.8°C 45.9°F7.7°C 87% 5.1 mph SSW8.2 kmh SSW 9.2 mph14.8 kmh 29.58 in1001.7 mb 0.00 in0.0 mm 0.00 in0.0 mm 0.00 in0.0 mm
07:10 AM 49.8°F9.9°C 45.8°F7.7°C 86% 3.9 mph SSW6.3 kmh SSW 6.9 mph11.1 kmh 29.59 in1002.0 mb 0.00 in0.0 mm 0.00 in0.0 mm 0.00 in0.0 mm
07:20 AM 50.4°F10.2°C 46.3°F7.9°C 86% 4.7 mph SSW7.6 kmh SSW 6.9 mph11.1 kmh 29.59 in1002.0 mb 0.00 in0.0 mm 0.00 in0.0 mm 0.00 in0.0 mm
07:30 AM 50.7°F10.4°C 46.4°F8.0°C 85% 4.1 mph WSW6.6 kmh WSW 6.0 mph9.7 kmh 29.59 in1002.0 mb 0.00 in0.0 mm 0.00 in0.0 mm 0.00 in0.0 mm
07:40 AM 51.1°F10.6°C 46.7°F8.2°C 85% 3.5 mph SW5.6 kmh SW 5.4 mph8.7 kmh 29.59 in1002.0 mb 0.00 in0.0 mm 0.00 in0.0 mm 0.00 in0.0 mm
07:50 AM 51.3°F10.7°C 46.9°F8.3°C 85% 3.7 mph NW6.0 kmh NW 5.4 mph8.7 kmh 29.60 in1002.4 mb 0.00 in0.0 mm 0.00 in0.0 mm 0.00 in0.0 mm
08:00 AM 51.6°F10.9°C 46.9°F8.3°C 84% 4.2 mph WSW6.8 kmh WSW 6.0 mph9.7 kmh 29.61 in1002.7 mb 0.00 in0.0 mm 0.00 in0.0 mm 0.00 in0.0 mm
08:10 AM 52.2°F11.2°C 47.5°F8.6°C 84% 2.9 mph W4.7 kmh W 4.5 mph7.2 kmh 29.61 in1002.7 mb 0.00 in0.0 mm 0.00 in0.0 mm 0.00 in0.0 mm
08:20 AM 52.7°F11.5°C 47.4°F8.6°C 82% 3.2 mph WSW5.1 kmh WSW 5.4 mph8.7 kmh 29.61 in1002.7 mb 0.00 in0.0 mm 0.00 in0.0 mm 0.00 in0.0 mm
08:30 AM 52.9°F11.6°C 47.2°F8.4°C 81% 3.6 mph W5.8 kmh W 5.4 mph8.7 kmh 29.61 in1002.7 mb 0.00 in0.0 mm 0.00 in0.0 mm 0.00 in0.0 mm
08:40 AM 53.1°F11.7°C 47.1°F8.4°C 80% 4.1 mph NW6.6 kmh NW 6.0 mph9.7 kmh 29.61 in1002.7 mb 0.00 in0.0 mm 0.00 in0.0 mm 0.00 in0.0 mm
08:50 AM 53.2°F11.8°C 47.2°F8.4°C 80% 2.9 mph WNW4.7 kmh WNW 5.4 mph8.7 kmh 29.62 in1003.0 mb 0.00 in0.0 mm 0.00 in0.0 mm 0.00 in0.0 mm
09:00 AM 53.6°F12.0°C 47.6°F8.7°C 80% 3.9 mph SW6.3 kmh SW 5.4 mph8.7 kmh 29.62 in1003.0 mb 0.00 in0.0 mm 0.00 in0.0 mm 0.00 in0.0 mm
09:10 AM 54.1°F12.3°C 47.8°F8.8°C 79% 5.3 mph WSW8.5 kmh WSW 9.8 mph15.8 kmh 29.61 in1002.7 mb 0.00 in0.0 mm 0.00 in0.0 mm 0.00 in0.0 mm
09:20 AM 54.9°F12.7°C 46.7°F8.2°C 74% 5.5 mph SW8.9 kmh SW 8.3 mph13.4 kmh 29.62 in1003.0 mb 0.00 in0.0 mm 0.00 in0.0 mm 0.00 in0.0 mm
09:30 AM 54.9°F12.7°C 46.4°F8.0°C 73% 5.7 mph NW9.2 kmh NW 9.8 mph15.8 kmh 29.62 in1003.0 mb 0.00 in0.0 mm 0.00 in0.0 mm 0.00 in0.0 mm
09:40 AM 54.7°F12.6°C 46.2°F7.9°C 73% 5.2 mph WSW8.4 kmh WSW 8.3 mph13.4 kmh 29.62 in1003.0 mb 0.00 in0.0 mm 0.00 in0.0 mm 0.00 in0.0 mm
09:50 AM 55.0°F12.8°C 46.6°F8.1°C 73% 5.2 mph NW8.4 kmh NW 7.6 mph12.2 kmh 29.62 in1003.0 mb 0.00 in0.0 mm 0.00 in0.0 mm 0.00 in0.0 mm
10:00 AM 55.8°F13.2°C 46.9°F8.3°C 72% 5.5 mph WSW8.9 kmh WSW 9.8 mph15.8 kmh 29.62 in1003.0 mb 0.00 in0.0 mm 0.00 in0.0 mm 0.00 in0.0 mm
10:10 AM 56.1°F13.4°C 46.9°F8.3°C 71% 6.9 mph SW11.1 kmh SW 9.8 mph15.8 kmh 29.62 in1003.0 mb 0.00 in0.0 mm 0.00 in0.0 mm 0.00 in0.0 mm
10:20 AM 56.7°F13.7°C 47.0°F8.3°C 70% 5.2 mph W8.4 kmh W 7.6 mph12.2 kmh 29.62 in1003.0 mb 0.00 in0.0 mm 0.00 in0.0 mm 0.00 in0.0 mm
10:30 AM 56.5°F13.6°C 46.8°F8.2°C 70% 6.2 mph WSW10.0 kmh WSW 9.2 mph14.8 kmh 29.63 in1003.4 mb 0.00 in0.0 mm 0.00 in0.0 mm 0.00 in0.0 mm
10:40 AM 56.7°F13.7°C 47.4°F8.6°C 71% 5.9 mph WSW9.5 kmh WSW 9.8 mph15.8 kmh 29.62 in1003.0 mb 0.00 in0.0 mm 0.00 in0.0 mm 0.00 in0.0 mm
10:50 AM 56.8°F13.8°C 47.2°F8.4°C 70% 7.3 mph WSW11.7 kmh WSW 11.4 mph18.3 kmh 29.63 in1003.4 mb 0.00 in0.0 mm 0.00 in0.0 mm 0.00 in0.0 mm
11:00 AM 57.0°F13.9°C 46.2°F7.9°C 67% 7.1 mph WSW11.4 kmh WSW 9.8 mph15.8 kmh 29.63 in1003.4 mb 0.00 in0.0 mm 0.00 in0.0 mm 0.00 in0.0 mm
11:10 AM 56.8°F13.8°C 46.0°F7.8°C 67% 8.3 mph WSW13.4 kmh WSW 10.7 mph17.2 kmh 29.63 in1003.4 mb 0.00 in0.0 mm 0.00 in0.0 mm 0.00 in0.0 mm
11:20 AM 57.0°F13.9°C 46.6°F8.1°C 68% 6.8 mph W10.9 kmh W 8.3 mph13.4 kmh 29.64 in1003.7 mb 0.00 in0.0 mm 0.00 in0.0 mm 0.00 in0.0 mm
11:30 AM 56.7°F13.7°C 47.0°F8.3°C 70% 7.0 mph NNE11.3 kmh NNE 12.1 mph19.5 kmh 29.64 in1003.7 mb 0.00 in0.0 mm 0.00 in0.0 mm 0.00 in0.0 mm
11:40 AM 53.6°F12.0°C 45.5°F7.5°C 74% 9.8 mph SW15.8 kmh SW 13.0 mph20.9 kmh 29.64 in1003.7 mb 0.04 in1.0 mm 0.24 in6.1 mm 0.04 in1.0 mm
11:50 AM 52.3°F11.3°C 46.0°F7.8°C 79% 8.4 mph W13.5 kmh W 13.0 mph20.9 kmh 29.63 in1003.4 mb 0.06 in1.5 mm 0.12 in3.0 mm 0.06 in1.5 mm
12:00 PM 53.4°F11.9°C 48.4°F9.1°C 83% 5.5 mph SSW8.9 kmh SSW 7.6 mph12.2 kmh 29.64 in1003.7 mb 0.06 in1.5 mm 0.00 in0.0 mm 0.06 in1.5 mm
12:10 PM 55.4°F13.0°C 49.7°F9.8°C 81% 4.9 mph SW7.9 kmh SW 8.3 mph13.4 kmh 29.63 in1003.4 mb 0.06 in1.5 mm 0.00 in0.0 mm 0.06 in1.5 mm
12:20 PM 56.1°F13.4°C 48.7°F9.3°C 76% 4.9 mph WSW7.9 kmh WSW 7.6 mph12.2 kmh 29.64 in1003.7 mb 0.06 in1.5 mm 0.00 in0.0 mm 0.06 in1.5 mm
12:30 PM 54.9°F12.7°C 47.4°F8.6°C 76% 5.6 mph SSW9.0 kmh SSW 9.2 mph14.8 kmh 29.64 in1003.7 mb 0.07 in1.8 mm 0.06 in1.5 mm 0.07 in1.8 mm
12:40 PM 54.7°F12.6°C 48.3°F9.1°C 79% 5.4 mph SSW8.7 kmh SSW 7.6 mph12.2 kmh 29.63 in1003.4 mb 0.02 in0.5 mm 0.00 in0.0 mm 0.07 in1.8 mm
12:50 PM 55.9°F13.3°C 48.1°F8.9°C 75% 4.9 mph SW7.9 kmh SW 8.3 mph13.4 kmh 29.64 in1003.7 mb 0.01 in0.3 mm 0.00 in0.0 mm 0.07 in1.8 mm
01:00 PM 56.3°F13.5°C 48.1°F8.9°C 74% 5.3 mph SW8.5 kmh SW 7.6 mph12.2 kmh 29.63 in1003.4 mb 0.01 in0.3 mm 0.00 in0.0 mm 0.07 in1.8 mm
01:10 PM 55.6°F13.1°C 47.4°F8.6°C 74% 4.4 mph SW7.1 kmh SW 6.0 mph9.7 kmh 29.63 in1003.4 mb 0.01 in0.3 mm 0.00 in0.0 mm 0.07 in1.8 mm
01:20 PM 55.8°F13.2°C 48.3°F9.1°C 76% 3.3 mph SW5.3 kmh SW 4.5 mph7.2 kmh 29.63 in1003.4 mb 0.01 in0.3 mm 0.00 in0.0 mm 0.07 in1.8 mm
01:30 PM 58.3°F14.6°C 50.4°F10.2°C 75% 3.6 mph SW5.8 kmh SW 5.4 mph8.7 kmh 29.63 in1003.4 mb 0.00 in0.0 mm 0.00 in0.0 mm 0.07 in1.8 mm
01:40 PM 56.5°F13.6°C 46.8°F8.2°C 70% 7.4 mph W11.9 kmh W 21.3 mph34.3 kmh 29.64 in1003.7 mb 0.00 in0.0 mm 0.00 in0.0 mm 0.07 in1.8 mm
01:50 PM 55.6°F13.1°C 46.3°F7.9°C 71% 7.5 mph WNW12.1 kmh WNW 11.4 mph18.3 kmh 29.63 in1003.4 mb 0.00 in0.0 mm 0.00 in0.0 mm 0.07 in1.8 mm
02:00 PM 57.0°F13.9°C 47.3°F8.5°C 70% 5.8 mph W9.3 kmh W 9.8 mph15.8 kmh 29.63 in1003.4 mb 0.00 in0.0 mm 0.00 in0.0 mm 0.07 in1.8 mm
02:10 PM 58.1°F14.5°C 47.6°F8.7°C 68% 6.6 mph WSW10.6 kmh WSW 11.4 mph18.3 kmh 29.63 in1003.4 mb 0.00 in0.0 mm 0.00 in0.0 mm 0.07 in1.8 mm
02:20 PM 58.3°F14.6°C 47.8°F8.8°C 68% 7.0 mph WSW11.3 kmh WSW 9.8 mph15.8 kmh 29.63 in1003.4 mb 0.00 in0.0 mm 0.00 in0.0 mm 0.07 in1.8 mm
02:30 PM 57.7°F14.3°C 46.9°F8.3°C 67% 6.1 mph WSW9.8 kmh WSW 9.2 mph14.8 kmh 29.63 in1003.4 mb 0.00 in0.0 mm 0.00 in0.0 mm 0.07 in1.8 mm
02:40 PM 58.1°F14.5°C 48.4°F9.1°C 70% 5.7 mph WSW9.2 kmh WSW 9.8 mph15.8 kmh 29.63 in1003.4 mb 0.00 in0.0 mm 0.00 in0.0 mm 0.07 in1.8 mm
02:50 PM 58.3°F14.6°C 47.8°F8.8°C 68% 7.5 mph WSW12.1 kmh WSW 9.2 mph14.8 kmh 29.63 in1003.4 mb 0.00 in0.0 mm 0.00 in0.0 mm 0.07 in1.8 mm
03:00 PM 58.5°F14.7°C 47.2°F8.4°C 66% 5.7 mph SSE9.2 kmh SSE 7.6 mph12.2 kmh 29.63 in1003.4 mb 0.00 in0.0 mm 0.00 in0.0 mm 0.07 in1.8 mm
03:10 PM 57.9°F14.4°C 46.6°F8.1°C 66% 6.5 mph SW10.5 kmh SW 9.2 mph14.8 kmh 29.62 in1003.0 mb 0.00 in0.0 mm 0.00 in0.0 mm 0.07 in1.8 mm
03:20 PM 56.7°F13.7°C 46.2°F7.9°C 68% 8.1 mph SW13.0 kmh SW 10.7 mph17.2 kmh 29.62 in1003.0 mb 0.00 in0.0 mm 0.00 in0.0 mm 0.07 in1.8 mm
03:30 PM 56.3°F13.5°C 46.7°F8.2°C 70% 5.5 mph SW8.9 kmh SW 8.3 mph13.4 kmh 29.62 in1003.0 mb 0.00 in0.0 mm 0.00 in0.0 mm 0.07 in1.8 mm
03:40 PM 55.9°F13.3°C 46.3°F7.9°C 70% 6.9 mph SW11.1 kmh SW 10.7 mph17.2 kmh 29.62 in1003.0 mb 0.00 in0.0 mm 0.00 in0.0 mm 0.07 in1.8 mm
03:50 PM 55.4°F13.0°C 46.2°F7.9°C 71% 6.4 mph W10.3 kmh W 11.4 mph18.3 kmh 29.62 in1003.0 mb 0.00 in0.0 mm 0.00 in0.0 mm 0.07 in1.8 mm
04:00 PM 54.9°F12.7°C 46.4°F8.0°C 73% 5.0 mph SW8.0 kmh SW 8.3 mph13.4 kmh 29.62 in1003.0 mb 0.00 in0.0 mm 0.00 in0.0 mm 0.07 in1.8 mm
04:10 PM 54.5°F12.5°C 47.1°F8.4°C 76% 3.4 mph S5.5 kmh S 5.4 mph8.7 kmh 29.62 in1003.0 mb 0.01 in0.3 mm 0.06 in1.5 mm 0.08 in2.0 mm
04:20 PM 53.6°F12.0°C 48.2°F9.0°C 82% 3.8 mph SSW6.1 kmh SSW 6.9 mph11.1 kmh 29.62 in1003.0 mb 0.01 in0.3 mm 0.00 in0.0 mm 0.08 in2.0 mm
04:30 PM 53.2°F11.8°C 48.2°F9.0°C 83% 4.1 mph SSW6.6 kmh SSW 6.0 mph9.7 kmh 29.63 in1003.4 mb 0.04 in1.0 mm 0.18 in4.6 mm 0.11 in2.8 mm
04:40 PM 52.3°F11.3°C 48.6°F9.2°C 87% 4.4 mph SSE7.1 kmh SSE 9.2 mph14.8 kmh 29.62 in1003.0 mb 0.06 in1.5 mm 0.12 in3.0 mm 0.13 in3.3 mm
04:50 PM 52.2°F11.2°C 48.4°F9.1°C 87% 5.7 mph SSW9.2 kmh SSW 9.2 mph14.8 kmh 29.62 in1003.0 mb 0.06 in1.5 mm 0.00 in0.0 mm 0.13 in3.3 mm
05:00 PM 52.2°F11.2°C 48.1°F8.9°C 86% 3.5 mph SW5.6 kmh SW 6.0 mph9.7 kmh 29.62 in1003.0 mb 0.06 in1.5 mm 0.00 in0.0 mm 0.13 in3.3 mm
05:10 PM 52.0°F11.1°C 48.2°F9.0°C 87% 3.9 mph SW6.3 kmh SW 6.0 mph9.7 kmh 29.61 in1002.7 mb 0.05 in1.3 mm 0.00 in0.0 mm 0.13 in3.3 mm
05:20 PM 51.8°F11.0°C 48.7°F9.3°C 89% 3.7 mph SSW6.0 kmh SSW 5.4 mph8.7 kmh 29.61 in1002.7 mb 0.05 in1.3 mm 0.00 in0.0 mm 0.13 in3.3 mm
05:30 PM 51.4°F10.8°C 48.6°F9.2°C 90% 3.3 mph S5.3 kmh S 4.5 mph7.2 kmh 29.62 in1003.0 mb 0.02 in0.5 mm 0.00 in0.0 mm 0.13 in3.3 mm
05:40 PM 51.4°F10.8°C 48.9°F9.4°C 91% 4.2 mph SSW6.8 kmh SSW 6.9 mph11.1 kmh 29.63 in1003.4 mb 0.00 in0.0 mm 0.00 in0.0 mm 0.13 in3.3 mm
05:50 PM 51.8°F11.0°C 49.3°F9.6°C 91% 3.7 mph SW6.0 kmh SW 6.9 mph11.1 kmh 29.62 in1003.0 mb 0.00 in0.0 mm 0.00 in0.0 mm 0.13 in3.3 mm
06:00 PM 52.3°F11.3°C 49.2°F9.6°C 89% 8.5 mph WSW13.7 kmh WSW 11.4 mph18.3 kmh 29.62 in1003.0 mb 0.01 in0.3 mm 0.01 in0.3 mm 0.14 in3.6 mm
06:10 PM 52.2°F11.2°C 48.1°F8.9°C 86% 7.6 mph W12.2 kmh W 9.2 mph14.8 kmh 29.62 in1003.0 mb 0.02 in0.5 mm 0.06 in1.5 mm 0.15 in3.8 mm
06:20 PM 52.0°F11.1°C 46.7°F8.2°C 82% 13.0 mph WNW20.9 kmh WNW 21.3 mph34.3 kmh 29.63 in1003.4 mb 0.02 in0.5 mm 0.00 in0.0 mm 0.15 in3.8 mm
06:30 PM 51.4°F10.8°C 45.8°F7.7°C 81% 6.1 mph W9.8 kmh W 10.7 mph17.2 kmh 29.63 in1003.4 mb 0.02 in0.5 mm 0.00 in0.0 mm 0.15 in3.8 mm
06:40 PM 50.9°F10.5°C 45.6°F7.6°C 82% 3.1 mph SSW5.0 kmh SSW 5.4 mph8.7 kmh 29.63 in1003.4 mb 0.02 in0.5 mm 0.00 in0.0 mm 0.15 in3.8 mm
06:50 PM 50.9°F10.5°C 46.2°F7.9°C 84% 3.9 mph S6.3 kmh S 6.0 mph9.7 kmh 29.63 in1003.4 mb 0.02 in0.5 mm 0.00 in0.0 mm 0.15 in3.8 mm
07:00 PM 51.4°F10.8°C 47.7°F8.7°C 87% 5.9 mph W9.5 kmh W 9.2 mph14.8 kmh 29.63 in1003.4 mb 0.01 in0.3 mm 0.00 in0.0 mm 0.15 in3.8 mm
07:10 PM 51.6°F10.9°C 47.9°F8.8°C 87% 5.7 mph SW9.2 kmh SW 9.2 mph14.8 kmh 29.64 in1003.7 mb 0.00 in0.0 mm 0.00 in0.0 mm 0.15 in3.8 mm
07:20 PM 51.6°F10.9°C 47.3°F8.5°C 85% 6.8 mph SW10.9 kmh SW 11.4 mph18.3 kmh 29.63 in1003.4 mb 0.00 in0.0 mm 0.00 in0.0 mm 0.15 in3.8 mm
07:30 PM 51.8°F11.0°C 47.1°F8.4°C 84% 6.6 mph SW10.6 kmh SW 10.7 mph17.2 kmh 29.64 in1003.7 mb 0.00 in0.0 mm 0.00 in0.0 mm 0.15 in3.8 mm
07:40 PM 52.0°F11.1°C 46.7°F8.2°C 82% 7.8 mph SW12.6 kmh SW 13.0 mph20.9 kmh 29.65 in1004.1 mb 0.00 in0.0 mm 0.00 in0.0 mm 0.15 in3.8 mm
07:50 PM 52.0°F11.1°C 46.7°F8.2°C 82% 8.8 mph W14.2 kmh W 11.4 mph18.3 kmh 29.64 in1003.7 mb 0.01 in0.3 mm 0.06 in1.5 mm 0.17 in4.3 mm
08:00 PM 51.6°F10.9°C 46.6°F8.1°C 83% 7.3 mph WSW11.7 kmh WSW 11.4 mph18.3 kmh 29.65 in1004.1 mb 0.01 in0.3 mm 0.00 in0.0 mm 0.17 in4.3 mm
08:10 PM 51.6°F10.9°C 46.9°F8.3°C 84% 5.4 mph WSW8.7 kmh WSW 9.2 mph14.8 kmh 29.66 in1004.4 mb 0.01 in0.3 mm 0.00 in0.0 mm 0.17 in4.3 mm
08:20 PM 51.4°F10.8°C 47.4°F8.6°C 86% 5.8 mph SSW9.3 kmh SSW 7.6 mph12.2 kmh 29.65 in1004.1 mb 0.02 in0.5 mm 0.06 in1.5 mm 0.18 in4.6 mm
08:30 PM 51.6°F10.9°C 47.9°F8.8°C 87% 5.8 mph NW9.3 kmh NW 9.2 mph14.8 kmh 29.66 in1004.4 mb 0.04 in1.0 mm 0.12 in3.0 mm 0.19 in4.8 mm
08:40 PM 51.4°F10.8°C 47.7°F8.7°C 87% 5.7 mph WSW9.2 kmh WSW 10.7 mph17.2 kmh 29.66 in1004.4 mb 0.04 in1.0 mm 0.00 in0.0 mm 0.19 in4.8 mm
08:50 PM 51.1°F10.6°C 47.4°F8.6°C 87% 3.0 mph S4.8 kmh S 5.4 mph8.7 kmh 29.66 in1004.4 mb 0.02 in0.5 mm 0.00 in0.0 mm 0.19 in4.8 mm
09:00 PM 50.7°F10.4°C 47.3°F8.5°C 88% 3.2 mph SSW5.1 kmh SSW 4.5 mph7.2 kmh 29.67 in1004.7 mb 0.02 in0.5 mm 0.00 in0.0 mm 0.19 in4.8 mm
09:10 PM 50.5°F10.3°C 47.7°F8.7°C 90% 2.7 mph SSW4.3 kmh SSW 3.8 mph6.1 kmh 29.68 in1005.1 mb 0.02 in0.5 mm 0.00 in0.0 mm 0.19 in4.8 mm
09:20 PM 50.5°F10.3°C 47.7°F8.7°C 90% 2.8 mph SSW4.5 kmh SSW 4.5 mph7.2 kmh 29.68 in1005.1 mb 0.02 in0.5 mm 0.00 in0.0 mm 0.20 in5.1 mm
09:30 PM 50.5°F10.3°C 48.0°F8.9°C 91% 3.9 mph S6.3 kmh S 8.3 mph13.4 kmh 29.69 in1005.4 mb 0.01 in0.3 mm 0.00 in0.0 mm 0.20 in5.1 mm
09:40 PM 50.7°F10.4°C 48.2°F9.0°C 91% 3.8 mph WSW6.1 kmh WSW 5.4 mph8.7 kmh 29.68 in1005.1 mb 0.01 in0.3 mm 0.00 in0.0 mm 0.20 in5.1 mm
09:50 PM 50.7°F10.4°C 47.9°F8.8°C 90% 3.2 mph WSW5.1 kmh WSW 6.0 mph9.7 kmh 29.68 in1005.1 mb 0.01 in0.3 mm 0.00 in0.0 mm 0.20 in5.1 mm
10:00 PM 50.4°F10.2°C 47.2°F8.4°C 89% 2.6 mph SSW4.2 kmh SSW 3.8 mph6.1 kmh 29.69 in1005.4 mb 0.01 in0.3 mm 0.00 in0.0 mm 0.20 in5.1 mm
10:10 PM 50.0°F10.0°C 46.9°F8.3°C 89% 1.9 mph SSW3.1 kmh SSW 3.8 mph6.1 kmh 29.70 in1005.8 mb 0.01 in0.3 mm 0.00 in0.0 mm 0.20 in5.1 mm
10:20 PM 49.6°F9.8°C 46.8°F8.2°C 90% 2.4 mph S3.9 kmh S 3.8 mph6.1 kmh 29.70 in1005.8 mb 0.00 in0.0 mm 0.00 in0.0 mm 0.20 in5.1 mm
10:30 PM 49.8°F9.9°C 46.7°F8.2°C 89% 4.1 mph SW6.6 kmh SW 8.3 mph13.4 kmh 29.70 in1005.8 mb 0.00 in0.0 mm 0.00 in0.0 mm 0.20 in5.1 mm
10:40 PM 50.4°F10.2°C 47.2°F8.4°C 89% 5.3 mph SW8.5 kmh SW 9.2 mph14.8 kmh 29.70 in1005.8 mb 0.00 in0.0 mm 0.00 in0.0 mm 0.20 in5.1 mm
10:50 PM 50.4°F10.2°C 46.6°F8.1°C 87% 5.3 mph SW8.5 kmh SW 9.8 mph15.8 kmh 29.71 in1006.1 mb 0.00 in0.0 mm 0.00 in0.0 mm 0.20 in5.1 mm
11:00 PM 50.4°F10.2°C 46.6°F8.1°C 87% 4.8 mph WSW7.7 kmh WSW 9.8 mph15.8 kmh 29.70 in1005.8 mb 0.00 in0.0 mm 0.00 in0.0 mm 0.20 in5.1 mm
11:10 PM 50.4°F10.2°C 46.6°F8.1°C 87% 3.7 mph SW6.0 kmh SW 5.4 mph8.7 kmh 29.70 in1005.8 mb 0.00 in0.0 mm 0.00 in0.0 mm 0.20 in5.1 mm
11:20 PM 50.2°F10.1°C 46.8°F8.2°C 88% 4.6 mph WSW7.4 kmh WSW 9.8 mph15.8 kmh 29.71 in1006.1 mb 0.00 in0.0 mm 0.00 in0.0 mm 0.20 in5.1 mm
11:30 PM 50.2°F10.1°C 46.8°F8.2°C 88% 3.9 mph WNW6.3 kmh WNW 6.0 mph9.7 kmh 29.70 in1005.8 mb 0.00 in0.0 mm 0.00 in0.0 mm 0.20 in5.1 mm
11:40 PM 50.0°F10.0°C 46.6°F8.1°C 88% 3.1 mph W5.0 kmh W 3.8 mph6.1 kmh 29.71 in1006.1 mb 0.00 in0.0 mm 0.00 in0.0 mm 0.20 in5.1 mm
11:50 PM 50.2°F10.1°C 46.8°F8.2°C 88% 4.0 mph SW6.4 kmh SW 6.0 mph9.7 kmh 29.71 in1006.1 mb 0.00 in0.0 mm 0.00 in0.0 mm 0.20 in5.1 mm